Time;durP1;ratioP1;P1;durP2;ratioP2;P2;SDS_P1;SDS_P2;PMS_P1;PMS_P2;Temp;Humidity;BMP_temperature;BMP_pressure;BME280_temperature;BME280_humidity;BME280_pressure;Samples;Min_cycle;Max_cycle;Signal;HPM_P1;HPM_P2
2024/01/16 00:01:35;;;;;;;84.50;37.50;;;;;;;3.38;48.69;98101.93;108194;1251;59080;-66
2024/01/16 00:04:02;;;;;;;117.70;49.70;;;;;;;3.25;48.73;98107.48;108212;1251;71043;-66
2024/01/16 00:06:30;;;;;;;115.30;47.40;;;;;;;3.17;48.87;98115.59;108195;1254;69391;-67
2024/01/16 00:08:57;;;;;;;124.20;47.90;;;;;;;3.36;48.54;98118.31;108188;1253;70544;-67
2024/01/16 00:11:25;;;;;;;184.50;62.10;;;;;;;3.33;48.37;98112.52;108245;1254;60408;-65
2024/01/16 00:13:53;;;;;;;133.50;48.80;;;;;;;3.11;49.17;98116.49;108144;1254;59564;-66
2024/01/16 00:16:21;;;;;;;91.30;36.40;;;;;;;3.05;49.53;98115.88;108149;1253;73041;-65
2024/01/16 00:18:48;;;;;;;75.90;31.70;;;;;;;3.01;50.22;98108.42;108085;1252;68734;-67
2024/01/16 00:21:16;;;;;;;73.80;30.40;;;;;;;3.07;50.59;98105.40;108196;1251;72607;-66
2024/01/16 00:23:43;;;;;;;74.30;32.20;;;;;;;3.13;51.01;98098.57;108179;1251;60575;-67
2024/01/16 00:26:20;;;;;;;61.70;29.40;;;;;;;3.34;50.62;98100.50;108237;1257;59754;-65
2024/01/16 00:28:48;;;;;;;64.30;29.50;;;;;;;3.57;50.16;98103.73;108225;1252;71618;-65
2024/01/16 00:31:16;;;;;;;74.70;32.60;;;;;;;3.72;49.69;98105.91;108080;1254;70606;-67
2024/01/16 00:33:43;;;;;;;75.40;34.40;;;;;;;3.65;49.59;98107.44;108108;1254;72490;-63
2024/01/16 00:36:11;;;;;;;81.00;37.40;;;;;;;3.59;49.27;98103.84;108182;1254;60839;-67
2024/01/16 00:38:39;;;;;;;78.40;34.10;;;;;;;3.48;49.48;98108.09;108180;1253;59564;-66
2024/01/16 00:41:06;;;;;;;76.10;34.20;;;;;;;3.53;49.53;98104.56;107998;1254;73002;-65
2024/01/16 00:43:35;;;;;;;81.70;35.20;;;;;;;3.58;49.48;98102.34;108128;1252;69020;-67
2024/01/16 00:46:02;;;;;;;79.30;34.30;;;;;;;3.54;49.59;98091.52;108149;1254;71416;-67
2024/01/16 00:48:30;;;;;;;84.00;34.90;;;;;;;3.55;49.55;98088.73;108159;1253;62009;-65
2024/01/16 00:50:57;;;;;;;84.90;36.90;;;;;;;3.54;49.19;98088.95;108138;1253;59420;-66
2024/01/16 00:53:26;;;;;;;81.70;37.50;;;;;;;3.59;49.16;98092.38;108022;1254;71848;-66
2024/01/16 00:55:54;;;;;;;82.90;36.30;;;;;;;3.58;49.19;98098.15;108115;1254;70259;-64
2024/01/16 00:58:22;;;;;;;83.30;35.20;;;;;;;3.38;49.43;98095.67;108096;1254;71716;-67
2024/01/16 01:00:51;;;;;;;91.50;39.60;;;;;;;3.30;49.77;98096.52;107932;1254;61692;-66
2024/01/16 01:03:19;;;;;;;83.10;36.90;;;;;;;3.33;49.70;98102.14;108050;1254;59519;-67
2024/01/16 01:05:46;;;;;;;82.50;34.70;;;;;;;3.31;50.02;98098.37;107929;1260;73218;-66
2024/01/16 01:08:14;;;;;;;79.40;33.10;;;;;;;3.33;50.26;98099.33;108142;1254;70167;-65
2024/01/16 01:10:41;;;;;;;83.70;35.80;;;;;;;3.33;50.20;98097.77;108116;1257;71882;-66
2024/01/16 01:13:09;;;;;;;83.90;36.40;;;;;;;3.42;50.20;98086.11;108120;1255;60557;-66
2024/01/16 01:15:37;;;;;;;74.50;32.80;;;;;;;3.49;50.17;98087.23;107995;1254;59522;-66
2024/01/16 01:18:06;;;;;;;78.70;33.40;;;;;;;3.61;50.03;98087.27;108163;1254;72714;-66
2024/01/16 01:20:33;;;;;;;80.10;35.90;;;;;;;3.72;49.84;98086.30;108094;1254;70136;-66
2024/01/16 01:23:01;;;;;;;75.30;31.80;;;;;;;3.67;49.72;98084.96;108063;1254;72726;-66
2024/01/16 01:25:29;;;;;;;73.10;33.20;;;;;;;3.60;49.90;98088.51;108154;1254;60837;-66
2024/01/16 01:27:56;;;;;;;75.60;33.80;;;;;;;3.76;49.48;98081.27;108025;1254;59060;-66
2024/01/16 01:30:24;;;;;;;69.00;30.50;;;;;;;3.83;49.45;98083.41;108065;1254;72588;-66
2024/01/16 01:32:52;;;;;;;68.60;30.30;;;;;;;3.70;49.58;98085.52;108249;1253;69078;-67
2024/01/16 01:35:19;;;;;;;72.00;31.20;;;;;;;3.81;49.41;98091.28;108112;1253;72828;-67
2024/01/16 01:37:47;;;;;;;66.30;30.60;;;;;;;3.89;49.23;98099.46;108213;1253;61681;-66
2024/01/16 01:40:15;;;;;;;68.10;27.20;;;;;;;3.70;49.84;98098.18;108128;1252;60069;-66
2024/01/16 01:42:43;;;;;;;64.00;29.40;;;;;;;3.53;49.99;98097.29;108115;1253;72586;-64
2024/01/16 01:45:11;;;;;;;67.20;27.90;;;;;;;3.76;49.47;98100.70;108035;1253;69946;-67
2024/01/16 01:47:39;;;;;;;72.50;29.80;;;;;;;3.82;49.45;98104.98;108084;1253;71469;-67
2024/01/16 01:50:08;;;;;;;84.00;35.60;;;;;;;3.75;49.56;98112.02;108193;1254;61718;-67
2024/01/16 01:52:39;;;;;;;76.60;33.50;;;;;;;3.76;49.48;98120.14;108151;1253;59407;-66
2024/01/16 01:55:10;;;;;;;77.20;31.70;;;;;;;3.81;49.37;98121.48;108103;1253;73272;-66
2024/01/16 01:57:37;;;;;;;;;;;;;;;3.86;49.36;98138.14;108142;1253;69417;-67
2024/01/16 02:00:06;;;;;;;93.40;37.70;;;;;;;3.89;49.27;98148.76;108162;1257;72422;-66
2024/01/16 02:02:41;;;;;;;83.30;36.00;;;;;;;3.73;49.34;98153.23;108200;1253;61646;-65
2024/01/16 02:05:09;;;;;;;84.90;36.50;;;;;;;3.66;49.70;98140.88;108137;1254;59457;-66
2024/01/16 02:07:37;;;;;;;75.80;33.70;;;;;;;3.68;49.67;98137.48;108028;1254;71969;-66
2024/01/16 02:10:06;;;;;;;71.10;33.20;;;;;;;3.70;49.58;98132.69;108043;1253;70260;-67
2024/01/16 02:12:33;;;;;;;84.10;36.00;;;;;;;3.69;49.66;98129.30;108052;1253;72570;-66
2024/01/16 02:15:01;;;;;;;71.60;32.70;;;;;;;3.65;49.50;98124.77;108042;1254;60648;-66
2024/01/16 02:17:28;;;;;;;67.70;29.50;;;;;;;3.41;50.16;98117.39;108171;1253;59930;-67
2024/01/16 02:19:56;;;;;;;70.20;32.60;;;;;;;3.42;50.35;98115.11;108094;1253;73012;-66
2024/01/16 02:22:24;;;;;;;76.10;33.10;;;;;;;3.52;50.15;98114.85;108147;1254;69041;-66
2024/01/16 02:24:51;;;;;;;74.60;33.30;;;;;;;3.51;49.93;98110.91;108005;1254;72718;-67
2024/01/16 02:27:19;;;;;;;74.40;33.50;;;;;;;3.48;50.30;98109.48;108056;1253;60479;-66
2024/01/16 02:29:47;;;;;;;75.30;33.30;;;;;;;3.50;50.19;98109.94;108120;1254;59497;-66
2024/01/16 02:32:16;;;;;;;77.70;34.20;;;;;;;3.41;50.34;98112.73;108052;1254;73105;-66
2024/01/16 02:34:44;;;;;;;75.00;31.60;;;;;;;3.44;50.45;98110.34;108048;1254;70602;-66
2024/01/16 02:37:11;;;;;;;72.70;32.00;;;;;;;3.50;50.56;98111.48;108106;1254;72885;-66
2024/01/16 02:39:39;;;;;;;82.00;34.90;;;;;;;3.59;50.29;98110.43;108071;1254;61682;-64
2024/01/16 02:42:07;;;;;;;68.40;30.20;;;;;;;3.71;50.04;98113.05;108057;1258;60257;-66
2024/01/16 02:44:34;;;;;;;74.30;32.40;;;;;;;3.77;50.07;98117.50;108080;1253;72996;-65
2024/01/16 02:47:03;;;;;;;79.30;35.00;;;;;;;3.77;49.80;98119.05;108053;1254;68739;-68
2024/01/16 02:49:32;;;;;;;74.50;33.70;;;;;;;3.79;49.99;98114.13;108041;1254;72635;-65
2024/01/16 02:52:00;;;;;;;85.10;35.70;;;;;;;3.76;49.88;98121.01;108056;1255;59955;-67
2024/01/16 02:54:27;;;;;;;74.00;31.50;;;;;;;3.74;49.94;98123.86;108001;1253;59946;-65
2024/01/16 02:56:55;;;;;;;76.20;33.10;;;;;;;3.76;50.06;98125.34;108105;1254;72993;-66
2024/01/16 02:59:22;;;;;;;79.90;35.20;;;;;;;3.77;49.97;98126.18;107909;1256;69640;-67
2024/01/16 03:01:50;;;;;;;69.20;31.70;;;;;;;3.69;50.01;98120.60;108064;1254;71389;-66
2024/01/16 03:04:17;;;;;;;78.90;34.00;;;;;;;3.68;50.18;98115.09;108127;1254;60629;-65
2024/01/16 03:06:45;;;;;;;77.70;34.00;;;;;;;3.68;50.12;98116.82;108255;1254;59160;-65
2024/01/16 03:09:13;;;;;;;80.90;35.00;;;;;;;3.72;50.30;98115.45;108070;1253;71914;-66
2024/01/16 03:11:40;;;;;;;81.40;36.70;;;;;;;3.67;50.23;98120.70;108054;1254;69536;-66
2024/01/16 03:14:08;;;;;;;76.50;33.40;;;;;;;3.70;50.12;98117.44;107991;1258;71210;-66
2024/01/16 03:16:35;;;;;;;83.40;35.90;;;;;;;3.65;50.16;98117.82;108081;1254;61912;-67
2024/01/16 03:19:03;;;;;;;77.30;34.90;;;;;;;3.52;50.17;98125.10;108065;1253;59712;-65
2024/01/16 03:21:30;;;;;;;69.10;30.50;;;;;;;3.65;49.85;98127.37;108059;1253;74030;-66
2024/01/16 03:23:58;;;;;;;76.20;34.30;;;;;;;3.66;49.70;98128.36;108103;1259;68682;-67
2024/01/16 03:26:26;;;;;;;67.40;30.60;;;;;;;3.62;49.34;98126.29;108167;1257;73008;-66
2024/01/16 03:28:53;;;;;;;76.40;34.80;;;;;;;3.48;49.81;98127.35;108064;1254;60383;-64
2024/01/16 03:31:22;;;;;;;65.70;30.90;;;;;;;3.36;49.87;98129.04;108116;1254;60389;-66
2024/01/16 03:33:49;;;;;;;69.70;31.50;;;;;;;3.07;50.42;98133.66;108121;1253;71767;-67
2024/01/16 03:36:17;;;;;;;76.90;34.20;;;;;;;2.95;51.06;98138.27;108092;1254;69959;-66
2024/01/16 03:38:44;;;;;;;68.90;30.70;;;;;;;3.19;50.70;98136.15;108071;1253;72663;-66
2024/01/16 03:41:12;;;;;;;70.30;33.20;;;;;;;3.19;50.82;98133.36;108063;1254;60649;-65
2024/01/16 03:43:40;;;;;;;74.10;32.40;;;;;;;3.13;50.98;98130.29;108118;1254;60364;-66
2024/01/16 03:46:10;;;;;;;67.30;30.00;;;;;;;3.14;51.16;98126.45;108098;1254;73838;-66
2024/01/16 03:48:38;;;;;;;75.40;33.50;;;;;;;3.15;51.16;98121.56;108099;1254;70495;-66
2024/01/16 03:51:07;;;;;;;74.40;32.40;;;;;;;3.27;51.07;98123.17;108078;1253;72654;-67
2024/01/16 03:53:35;;;;;;;70.30;32.00;;;;;;;3.29;50.95;98122.23;108051;1254;61699;-66
2024/01/16 03:56:02;;;;;;;70.90;31.70;;;;;;;3.33;50.86;98120.33;108101;1254;60295;-66
2024/01/16 03:58:30;;;;;;;62.40;29.60;;;;;;;3.35;50.75;98117.80;107984;1254;73833;-66
2024/01/16 04:00:57;;;;;;;64.40;32.00;;;;;;;3.36;50.94;98115.87;108079;1254;68880;-67
2024/01/16 04:03:25;;;;;;;66.50;31.20;;;;;;;3.32;51.01;98118.45;107934;1254;72537;-68
2024/01/16 04:05:53;;;;;;;75.50;32.10;;;;;;;3.33;51.10;98118.26;107948;1257;60440;-66
2024/01/16 04:08:20;;;;;;;70.90;33.80;;;;;;;3.35;51.00;98109.32;107928;1254;60539;-65
2024/01/16 04:10:48;;;;;;;62.40;29.80;;;;;;;3.38;50.78;98107.64;107890;1256;74023;-66
2024/01/16 04:13:16;;;;;;;71.00;31.10;;;;;;;3.41;50.90;98110.27;107981;1257;68838;-66
2024/01/16 04:15:43;;;;;;;75.00;33.40;;;;;;;3.18;51.23;98113.80;107944;1254;70275;-65
2024/01/16 04:18:11;;;;;;;72.60;32.00;;;;;;;3.08;51.56;98110.91;107947;1254;61727;-64
2024/01/16 04:20:38;;;;;;;78.90;35.20;;;;;;;3.24;51.21;98109.41;108077;1254;60396;-62
2024/01/16 04:23:06;;;;;;;74.70;32.80;;;;;;;3.23;51.15;98113.64;107995;1254;73884;-66
2024/01/16 04:25:34;;;;;;;80.80;33.30;;;;;;;3.25;51.09;98115.59;107946;1257;68716;-66
2024/01/16 04:28:02;;;;;;;78.60;34.70;;;;;;;3.28;50.97;98119.84;107955;1254;71682;-66
2024/01/16 04:30:30;;;;;;;79.10;35.10;;;;;;;3.20;51.08;98127.61;107921;1256;61879;-67
2024/01/16 04:32:57;;;;;;;92.90;38.50;;;;;;;3.17;51.12;98131.87;107944;1254;60329;-67
2024/01/16 04:35:25;;;;;;;94.10;36.10;;;;;;;3.11;51.26;98129.16;108052;1254;72969;-66
2024/01/16 04:37:53;;;;;;;103.00;36.30;;;;;;;3.10;51.27;98123.48;108022;1254;71314;-65
2024/01/16 04:40:21;;;;;;;100.70;37.70;;;;;;;3.05;51.34;98126.08;107953;1255;72813;-66
2024/01/16 04:42:49;;;;;;;89.70;36.20;;;;;;;3.04;51.30;98129.10;108044;1254;60498;-66
2024/01/16 04:45:16;;;;;;;95.20;37.20;;;;;;;2.95;51.54;98128.55;107957;1254;60220;-67
2024/01/16 04:47:44;;;;;;;111.00;41.20;;;;;;;2.98;51.53;98128.98;107985;1254;72987;-67
2024/01/16 04:50:12;;;;;;;86.80;35.70;;;;;;;3.02;51.46;98132.11;108024;1254;72718;-67
2024/01/16 04:52:39;;;;;;;91.50;36.80;;;;;;;3.05;51.58;98134.60;107966;1254;71053;-66
2024/01/16 04:55:07;;;;;;;89.90;38.30;;;;;;;3.07;51.39;98137.81;108102;1253;60686;-66
2024/01/16 04:57:34;;;;;;;79.50;32.40;;;;;;;3.08;51.38;98139.50;108104;1253;60523;-65
2024/01/16 05:00:06;;;;;;;79.40;34.10;;;;;;;3.15;51.30;98141.66;108098;1254;73830;-66
2024/01/16 05:02:35;;;;;;;74.20;33.30;;;;;;;3.12;51.31;98137.45;108048;1254;70133;-66
2024/01/16 05:05:03;;;;;;;73.10;32.00;;;;;;;3.19;51.25;98138.42;108105;1254;72999;-67
2024/01/16 05:07:31;;;;;;;81.00;34.30;;;;;;;3.23;51.29;98138.08;108144;1254;61702;-67
2024/01/16 05:09:58;;;;;;;81.70;33.80;;;;;;;3.20;51.30;98136.63;107962;1253;60452;-67
2024/01/16 05:12:26;;;;;;;82.20;37.80;;;;;;;3.17;51.40;98140.38;108042;1254;73740;-67
2024/01/16 05:14:53;;;;;;;82.00;35.70;;;;;;;3.14;51.33;98142.39;108100;1253;69952;-66
2024/01/16 05:17:21;;;;;;;75.40;34.20;;;;;;;3.35;51.13;98144.02;108149;1254;71374;-67
2024/01/16 05:19:48;;;;;;;77.10;33.90;;;;;;;3.39;51.01;98139.66;108153;1253;60889;-66
2024/01/16 05:22:16;;;;;;;78.50;33.80;;;;;;;3.40;50.97;98142.77;108103;1253;60319;-66
2024/01/16 05:24:43;;;;;;;83.80;35.80;;;;;;;3.40;51.07;98144.33;108101;1253;72707;-66
2024/01/16 05:27:11;;;;;;;75.90;34.30;;;;;;;3.37;51.01;98143.73;108102;1253;68750;-66
2024/01/16 05:29:41;;;;;;;72.80;33.10;;;;;;;3.44;50.96;98141.41;108057;1257;72974;-67
2024/01/16 05:32:11;;;;;;;73.80;32.60;;;;;;;3.59;50.72;98142.89;108162;1253;60443;-67
2024/01/16 05:34:39;;;;;;;74.10;32.40;;;;;;;3.61;50.40;98146.44;108241;1253;60258;-67
2024/01/16 05:37:07;;;;;;;73.40;33.90;;;;;;;3.58;50.91;98146.73;108101;1254;73900;-67
2024/01/16 05:39:34;;;;;;;77.40;33.50;;;;;;;3.49;50.92;98149.70;108202;1257;70182;-66
2024/01/16 05:42:02;;;;;;;72.70;31.70;;;;;;;3.43;51.09;98153.08;108158;1254;72645;-66
2024/01/16 05:44:30;;;;;;;75.90;33.00;;;;;;;3.46;51.08;98158.14;108224;1254;61653;-67
2024/01/16 05:46:57;;;;;;;71.20;33.00;;;;;;;3.51;50.70;98162.45;108118;1253;60299;-67
2024/01/16 05:49:25;;;;;;;72.20;32.00;;;;;;;3.60;50.60;98162.24;108148;1254;72570;-66
2024/01/16 05:51:53;;;;;;;71.50;30.90;;;;;;;3.48;50.71;98154.92;108242;1258;69253;-67
2024/01/16 05:54:20;;;;;;;65.00;30.50;;;;;;;3.43;50.64;98163.63;108135;1253;72922;-67
2024/01/16 05:56:48;;;;;;;73.30;31.70;;;;;;;3.64;50.54;98163.32;108104;1254;61655;-66
2024/01/16 05:59:16;;;;;;;71.60;30.00;;;;;;;3.76;50.03;98163.90;108117;1253;60219;-67
2024/01/16 06:01:43;;;;;;;57.90;27.80;;;;;;;3.70;50.00;98163.60;108195;1253;73762;-67
2024/01/16 06:04:11;;;;;;;64.50;29.30;;;;;;;3.71;49.86;98168.23;108087;1258;69425;-67
2024/01/16 06:06:45;;;;;;;49.30;22.30;;;;;;;3.63;49.83;98171.52;108051;1254;71292;-67
2024/01/16 06:09:13;;;;;;;66.90;28.90;;;;;;;3.80;49.68;98171.20;108074;1254;61915;-66
2024/01/16 06:11:42;;;;;;;67.50;29.70;;;;;;;3.96;49.44;98176.93;108128;1253;60181;-67
2024/01/16 06:14:09;;;;;;;59.30;27.30;;;;;;;3.93;49.20;98177.43;108029;1254;72647;-68
2024/01/16 06:16:37;;;;;;;58.40;27.70;;;;;;;3.91;49.32;98184.27;108095;1254;70146;-66
2024/01/16 06:19:05;;;;;;;60.40;26.80;;;;;;;3.93;49.14;98186.80;108151;1254;71427;-67
2024/01/16 06:21:32;;;;;;;55.50;25.70;;;;;;;3.99;48.90;98189.69;108100;1254;60378;-67
2024/01/16 06:24:00;;;;;;;52.50;25.10;;;;;;;4.13;48.68;98189.09;108072;1254;60447;-67
2024/01/16 06:26:28;;;;;;;55.10;24.50;;;;;;;4.27;48.61;98195.13;108133;1254;73759;-66
2024/01/16 06:28:55;;;;;;;53.20;23.80;;;;;;;4.31;48.45;98192.69;108159;1254;70160;-67
2024/01/16 06:31:25;;;;;;;53.70;23.90;;;;;;;4.40;48.17;98194.20;108177;1254;71261;-67
2024/01/16 06:33:53;;;;;;;52.40;23.30;;;;;;;4.56;47.96;98199.43;108087;1252;60539;-67
2024/01/16 06:36:21;;;;;;;51.90;23.50;;;;;;;4.66;47.72;98197.77;108120;1253;60460;-67
2024/01/16 06:38:48;;;;;;;49.70;23.10;;;;;;;4.73;47.34;98194.86;108067;1258;73922;-66
2024/01/16 06:41:16;;;;;;;52.90;24.70;;;;;;;4.85;47.05;98200.05;108200;1253;69531;-65
2024/01/16 06:43:43;;;;;;;40.70;18.30;;;;;;;4.96;46.82;98196.46;108212;1254;71423;-66
2024/01/16 06:46:11;;;;;;;49.70;22.60;;;;;;;4.92;46.63;98196.44;108134;1254;60342;-65
2024/01/16 06:48:39;;;;;;;51.50;22.20;;;;;;;5.20;46.62;98196.39;108278;1254;60370;-67
2024/01/16 06:51:07;;;;;;;52.20;23.00;;;;;;;5.40;46.24;98191.31;108168;1251;72956;-67
2024/01/16 06:53:35;;;;;;;54.80;23.30;;;;;;;5.47;46.01;98195.83;108121;1254;70118;-67
2024/01/16 06:56:05;;;;;;;49.30;20.60;;;;;;;5.70;45.77;98198.20;108130;1257;70755;-67
2024/01/16 06:58:35;;;;;;;51.60;22.50;;;;;;;5.81;45.12;98198.38;108179;1253;62841;-67
2024/01/16 07:01:03;;;;;;;45.90;21.80;;;;;;;5.98;44.98;98191.84;108251;1253;60369;-68
2024/01/16 07:03:31;;;;;;;44.10;20.40;;;;;;;6.21;44.50;98198.19;108187;1254;73668;-68
2024/01/16 07:05:58;;;;;;;48.70;22.00;;;;;;;6.39;43.89;98195.75;108122;1254;70278;-68
2024/01/16 07:08:27;;;;;;;49.00;22.20;;;;;;;6.60;43.69;98199.38;108120;1258;71368;-66
2024/01/16 07:10:54;;;;;;;47.00;21.20;;;;;;;6.64;43.37;98201.27;108131;1254;60813;-67
2024/01/16 07:13:22;;;;;;;43.10;21.90;;;;;;;6.81;42.70;98201.27;108077;1251;60078;-66
2024/01/16 07:15:49;;;;;;;47.70;22.60;;;;;;;6.92;42.79;98198.40;108190;1253;73762;-67
2024/01/16 07:18:18;;;;;;;41.10;19.10;;;;;;;6.70;43.01;98200.26;108205;1254;70338;-67
2024/01/16 07:20:46;;;;;;;44.10;21.50;;;;;;;6.84;43.02;98200.57;108226;1254;72627;-67
2024/01/16 07:23:14;;;;;;;41.60;20.20;;;;;;;7.34;42.37;98195.29;108208;1254;60471;-67
2024/01/16 07:25:42;;;;;;;42.50;20.80;;;;;;;7.92;40.94;98200.57;108175;1258;60244;-67
2024/01/16 07:28:10;;;;;;;38.80;19.30;;;;;;;8.61;39.91;98204.30;108130;1252;72619;-68
2024/01/16 07:30:37;;;;;;;39.70;19.60;;;;;;;8.73;38.96;98199.58;108151;1258;69047;-68
2024/01/16 07:33:05;;;;;;;37.30;19.30;;;;;;;8.71;38.40;98194.23;108070;1254;71236;-65
2024/01/16 07:35:33;;;;;;;37.70;19.10;;;;;;;8.95;38.11;98196.31;108174;1252;59117;-67
2024/01/16 07:38:01;;;;;;;34.60;17.50;;;;;;;9.32;37.68;98191.06;108097;1254;60223;-65
2024/01/16 07:40:32;;;;;;;38.20;18.50;;;;;;;9.81;36.75;98187.55;108114;1253;73676;-65
2024/01/16 07:42:59;;;;;;;33.70;18.10;;;;;;;10.15;36.66;98188.15;108091;1254;69977;-68
2024/01/16 07:45:27;;;;;;;36.30;17.50;;;;;;;10.90;35.36;98188.72;108180;1253;72471;-68
2024/01/16 07:47:55;;;;;;;33.10;17.80;;;;;;;11.57;34.71;98188.10;108085;1257;60308;-68
2024/01/16 07:50:22;;;;;;;36.40;17.10;;;;;;;11.81;33.42;98193.70;107973;1254;59202;-67
2024/01/16 07:52:50;;;;;;;35.20;17.30;;;;;;;11.98;32.91;98192.17;108219;1254;72641;-68
2024/01/16 07:55:18;;;;;;;35.60;17.40;;;;;;;12.05;32.80;98191.84;108159;1254;70384;-68
2024/01/16 07:57:49;;;;;;;31.90;16.60;;;;;;;12.21;32.67;98195.54;108186;1254;71930;-66
2024/01/16 08:00:18;;;;;;;32.80;17.70;;;;;;;12.23;32.06;98197.85;108238;1254;60398;-68
2024/01/16 08:02:45;;;;;;;29.90;15.80;;;;;;;12.24;32.28;98199.04;108323;1254;60545;-70
2024/01/16 08:05:13;;;;;;;37.30;16.80;;;;;;;12.56;31.64;98199.62;108242;1252;73775;-67
2024/01/16 08:07:44;;;;;;;32.70;16.70;;;;;;;12.76;31.37;98207.72;108248;1254;68894;-68
2024/01/16 08:10:11;;;;;;;32.80;16.80;;;;;;;12.86;31.14;98202.80;108177;1254;72672;-68
2024/01/16 08:12:41;;;;;;;32.00;17.40;;;;;;;12.81;31.03;98204.36;108258;1254;60424;-67
2024/01/16 08:15:09;;;;;;;35.00;17.40;;;;;;;12.61;31.20;98202.23;108293;1253;60342;-66
2024/01/16 08:17:36;;;;;;;28.60;16.00;;;;;;;12.70;31.10;98203.46;108246;1257;73907;-69
2024/01/16 08:20:06;;;;;;;30.50;15.10;;;;;;;13.04;31.06;98205.92;108242;1254;68961;-67
2024/01/16 08:22:33;;;;;;;25.40;14.90;;;;;;;13.12;30.56;98202.71;108235;1254;72113;-68
2024/01/16 08:25:01;;;;;;;27.50;15.50;;;;;;;13.48;30.44;98198.17;108226;1252;60504;-67
2024/01/16 08:27:29;;;;;;;27.40;15.00;;;;;;;13.93;29.62;98195.21;108267;1254;60508;-68
2024/01/16 08:29:56;;;;;;;24.80;13.70;;;;;;;13.89;29.26;98197.81;108160;1253;73239;-66
2024/01/16 08:32:24;;;;;;;22.30;13.40;;;;;;;13.99;29.48;98199.50;108172;1254;68848;-66
2024/01/16 08:34:52;;;;;;;25.40;13.00;;;;;;;14.25;29.16;98201.42;108136;1257;71370;-66
2024/01/16 08:37:20;;;;;;;23.80;13.10;;;;;;;14.32;28.81;98197.29;108171;1257;60345;-66
2024/01/16 08:39:47;;;;;;;23.00;12.80;;;;;;;14.31;28.57;98197.41;108111;1253;60447;-68
2024/01/16 08:42:15;;;;;;;18.80;11.70;;;;;;;14.72;28.16;98200.90;108132;1253;74860;-69
2024/01/16 08:44:43;;;;;;;25.00;12.80;;;;;;;14.90;28.01;98197.41;108213;1254;69485;-68
2024/01/16 08:47:10;;;;;;;22.20;12.30;;;;;;;14.77;27.71;98204.15;108184;1253;71743;-68
2024/01/16 08:49:38;;;;;;;20.40;11.00;;;;;;;15.05;27.85;98201.79;108256;1255;61001;-68
2024/01/16 08:52:06;;;;;;;17.70;10.70;;;;;;;15.40;27.52;98200.17;108145;1254;62219;-68
2024/01/16 08:54:34;;;;;;;23.20;12.40;;;;;;;15.73;26.73;98202.08;108110;1254;74003;-68
2024/01/16 08:57:01;;;;;;;17.30;10.70;;;;;;;15.64;26.69;98199.61;108191;1254;69774;-68
2024/01/16 08:59:29;;;;;;;20.20;11.00;;;;;;;16.04;26.79;98212.02;108120;1254;75020;-68
2024/01/16 09:01:57;;;;;;;19.60;10.60;;;;;;;16.10;26.13;98214.52;108233;1252;60363;-67
2024/01/16 09:04:24;;;;;;;20.40;11.70;;;;;;;16.23;26.32;98216.01;108134;1253;60273;-68
2024/01/16 09:06:52;;;;;;;18.30;10.60;;;;;;;16.53;26.01;98217.66;107992;1253;72581;-68
2024/01/16 09:09:21;;;;;;;16.90;10.30;;;;;;;16.92;25.70;98226.10;108181;1254;72710;-67
2024/01/16 09:11:48;;;;;;;16.70;10.70;;;;;;;17.17;25.32;98227.66;108175;1254;73168;-68
2024/01/16 09:14:16;;;;;;;16.20;9.50;;;;;;;17.16;25.38;98233.09;108165;1259;60428;-67
2024/01/16 09:16:44;;;;;;;14.40;9.40;;;;;;;17.24;25.04;98232.74;108167;1254;60450;-67
2024/01/16 09:19:12;;;;;;;15.10;8.70;;;;;;;16.81;25.38;98239.87;108148;1254;74159;-67
2024/01/16 09:21:39;;;;;;;15.00;8.80;;;;;;;15.81;25.42;98233.16;108155;1254;69921;-68
2024/01/16 09:24:12;;;;;;;15.00;8.70;;;;;;;14.85;26.48;98232.23;108195;1254;73609;-67
2024/01/16 09:26:40;;;;;;;17.00;9.80;;;;;;;13.83;27.85;98241.39;108231;1254;60498;-67
2024/01/16 09:29:09;;;;;;;14.40;9.00;;;;;;;13.55;28.40;98241.25;108091;1254;60342;-68
2024/01/16 09:31:37;;;;;;;16.80;9.40;;;;;;;12.96;28.71;98247.65;108164;1257;74055;-66
2024/01/16 09:34:04;;;;;;;19.30;9.60;;;;;;;12.97;28.87;98247.18;108106;1254;72637;-68
2024/01/16 09:36:36;;;;;;;15.90;8.90;;;;;;;13.28;29.10;98249.26;108121;1254;73036;-68
2024/01/16 09:39:08;;;;;;;15.60;8.40;;;;;;;13.68;28.59;98246.23;108140;1254;60353;-68
2024/01/16 09:41:36;;;;;;;;;;;;;;;14.05;27.66;98237.61;108148;1254;61013;-69
2024/01/16 09:44:04;;;;;;;13.20;7.90;;;;;;;14.30;27.35;98238.77;108095;1258;72526;-66
2024/01/16 09:46:32;;;;;;;13.30;7.10;;;;;;;14.30;27.38;98237.02;108054;1257;70087;-68
2024/01/16 09:48:59;;;;;;;12.50;6.50;;;;;;;14.79;26.81;98241.23;107980;1254;74891;-68
2024/01/16 09:51:27;;;;;;;13.60;7.70;;;;;;;15.14;26.49;98238.83;108097;1258;60584;-68
2024/01/16 09:53:55;;;;;;;11.80;7.70;;;;;;;15.57;26.09;98238.07;108104;1253;60296;-67
2024/01/16 09:56:26;;;;;;;17.70;7.40;;;;;;;16.11;25.89;98241.29;108090;1258;74041;-68
2024/01/16 09:58:58;;;;;;;14.30;7.40;;;;;;;16.55;24.84;98242.59;108069;1254;70221;-68
2024/01/16 10:01:27;;;;;;;13.00;7.50;;;;;;;16.48;24.63;98242.35;108089;1255;71562;-68
2024/01/16 10:03:54;;;;;;;14.90;7.30;;;;;;;16.51;24.72;98244.98;108067;1253;61835;-68
2024/01/16 10:06:22;;;;;;;14.60;7.30;;;;;;;16.69;24.66;98250.27;108078;1254;60188;-69
2024/01/16 10:08:50;;;;;;;13.30;6.30;;;;;;;16.67;23.83;98250.03;108144;1259;74302;-68
2024/01/16 10:11:18;;;;;;;10.30;6.40;;;;;;;15.85;24.55;98258.29;108030;1254;73101;-67
2024/01/16 10:13:45;;;;;;;11.20;6.40;;;;;;;15.70;24.69;98256.98;108071;1254;72443;-66
2024/01/16 10:16:13;;;;;;;10.70;6.20;;;;;;;16.20;24.64;98255.86;107952;1257;60409;-69
2024/01/16 10:18:42;;;;;;;9.00;5.60;;;;;;;16.63;24.17;98258.38;108109;1258;60527;-68
2024/01/16 10:21:22;;;;;;;9.60;5.50;;;;;;;17.24;24.06;98258.08;107996;1254;71959;-68
2024/01/16 10:23:53;;;;;;;11.60;5.00;;;;;;;18.05;23.46;98256.17;108028;1254;73412;-68
2024/01/16 10:26:20;;;;;;;11.10;5.80;;;;;;;18.23;22.28;98260.81;108032;1257;71487;-69
2024/01/16 10:28:48;;;;;;;8.90;4.80;;;;;;;18.69;22.33;98261.30;107896;1258;59454;-69
2024/01/16 10:31:15;;;;;;;8.60;5.10;;;;;;;18.66;22.05;98266.14;108094;1253;61414;-69
2024/01/16 10:33:44;;;;;;;8.20;5.10;;;;;;;18.11;21.73;98270.86;108135;1257;73777;-68
2024/01/16 10:36:13;;;;;;;9.10;4.80;;;;;;;17.62;22.43;98274.34;108025;1254;70239;-68
2024/01/16 10:38:43;;;;;;;7.50;4.60;;;;;;;16.95;22.57;98280.17;108050;1254;70666;-70
2024/01/16 10:41:16;;;;;;;6.80;4.50;;;;;;;16.46;22.88;98281.86;108066;1260;59819;-68
2024/01/16 10:43:44;;;;;;;7.90;4.40;;;;;;;15.71;23.52;98289.66;108119;1254;62189;-68
2024/01/16 10:46:16;;;;;;;6.60;3.70;;;;;;;15.49;23.72;98287.98;108124;1254;74111;-67
2024/01/16 10:48:58;;;;;;;6.60;3.40;;;;;;;15.02;24.35;98301.54;108100;1255;69140;-68
2024/01/16 10:51:27;;;;;;;5.70;3.70;;;;;;;13.85;25.37;98305.77;108108;1254;74845;-68
2024/01/16 10:53:59;;;;;;;6.50;3.60;;;;;;;12.90;25.97;98308.83;108207;1252;60469;-68
2024/01/16 10:56:29;;;;;;;7.30;3.60;;;;;;;11.98;27.41;98314.21;108147;1252;60498;-66
2024/01/16 10:59:19;;;;;;;5.50;3.60;;;;;;;11.45;27.84;98316.84;108112;1258;75835;-66
2024/01/16 11:01:54;;;;;;;7.70;3.80;;;;;;;11.02;28.49;98325.73;108238;1254;70205;-68
2024/01/16 11:04:21;;;;;;;8.80;4.80;;;;;;;10.68;29.39;98327.12;108155;1254;72901;-68
2024/01/16 11:06:51;;;;;;;7.50;4.20;;;;;;;10.45;29.66;98336.01;108211;1256;60332;-67
2024/01/16 11:12:42;;;;;;;6.30;4.00;;;;;;;8.06;33.15;98352.15;104953;1288;616206;-67
2024/01/16 11:15:12;;;;;;;6.10;4.00;;;;;;;8.66;32.79;98349.73;107226;1266;59440;-67
2024/01/16 11:17:39;;;;;;;8.30;3.90;;;;;;;8.34;32.63;98348.89;107309;1266;60398;-67
2024/01/16 11:20:10;;;;;;;8.70;4.30;;;;;;;8.34;33.07;98350.83;107925;1256;72521;-68
2024/01/16 11:22:59;;;;;;;5.70;3.40;;;;;;;7.96;33.38;98358.02;107995;1256;70689;-67
2024/01/16 11:25:33;;;;;;;8.10;3.70;;;;;;;8.07;33.50;98358.58;107795;1253;115367;-67